KMHS/MHS METAR and TAF weather

Enter ICAO airport designator
Station Type Date Time Source
KMHS METAR 2020/09/30 15:56 UTC NOAA

KMHS 301556Z AUTO 00000KT 1 3/4SM HZ OVC032 12/06 A3029 RMK AO2 SLP264 T01220056


Station Type Date Time Source
KMHS Decoded METAR 2020/09/30 15:56 UTC NOAA

MOUNT SHASTA, CA, United States (KMHS) 41-19N 122-19W 1078M
Sep 30, 2020 - 11:56 AM EDT / 2020.09.30 1556 UTC
Wind: Calm:0
Visibility: 1 3/4 mile(s):0
Sky conditions: overcast
Weather: haze
Temperature: 54.0 F (12.2 C)
Dew Point: 42.1 F (5.6 C)
Relative Humidity: 64%
Pressure (altimeter): 30.29 in. Hg (1025 hPa)
ob: KMHS 301556Z AUTO 00000KT 1 3/4SM HZ OVC032 12/06 A3029 RMK AO2 SLP264 T01220056
cycle: 16

Station Type Date Time Source
KMHS TAF UTC NOAA

Error!

Example: see airport list